Terminal Aerodrome Forecast
Issued by NWS New Orleans/Baton Rouge, LA

Home | Current Version | Previous Version | Text Only | Print | Product List | Glossary On
Versions: 1 2 3 4 5 6 7 8 9 10 11 12
000
FTUS44 KLIX 291740
TAFBTR
TAF
KBTR 291740Z 2918/3018 06007KT P6SM FEW040
     FM300100 VRB03KT P6SM FEW060 BKN250
     FM301430 35008KT P6SM FEW080 SCT190=

USA.gov is the U.S. government's official web portal to all federal, state and local government web resources and services.